KCLM/CLM METAR and TAF weather

Enter ICAO airport designator
Station Type Date Time Source
KCLM METAR 2021/05/13 04:53 UTC NOAA

KCLM 130453Z AUTO 30006KT 3/4SM BR VV002 09/08 A3020 RMK AO2 SLP229 T00940083


Station Type Date Time Source
KCLM Decoded METAR 2021/05/13 04:53 UTC NOAA

PORT ANGELES FAIRCHILD INTERNATIONAL , WA, United States (KCLM) 48-07N 123-30W 85M
May 13, 2021 - 12:53 AM EDT / 2021.05.13 0453 UTC
Wind: from the WNW (300 degrees) at 7 MPH (6 KT):0
Visibility: 3/4 mile(s):0
Sky conditions: obscured
Weather: mist
Temperature: 48.9 F (9.4 C)
Dew Point: 46.9 F (8.3 C)
Relative Humidity: 92%
Pressure (altimeter): 30.2 in. Hg (1022 hPa)
ob: KCLM 130453Z AUTO 30006KT 3/4SM BR VV002 09/08 A3020 RMK AO2 SLP229 T00940083
cycle: 5

Station Type Date Time Source
KCLM TAF 2021/05/13 03:21 UTC NOAA

TAF
AMD KCLM 130318Z 1303/1324 31005KT P6SM BKN003 BKN035
FM130900 26005KT P6SM BKN025
FM131200 26005KT P6SM OVC005
FM131700 VRB05KT P6SM OVC015
FM132100 VRB05KT P6SM BKN250

Example: see airport list